createdAt,value
2023-07-16T00:03:25.626Z,65.10571
2023-07-16T00:08:26.954Z,67.51151
2023-07-16T00:13:28.321Z,66.67237
2023-07-16T00:18:29.613Z,67.16002
2023-07-16T00:23:30.935Z,68.52822
2023-07-16T00:28:32.392Z,66.91051
2023-07-16T00:33:33.756Z,68.79293
2023-07-16T00:38:35.380Z,71.63437
2023-07-16T00:43:36.752Z,74.66723
2023-07-16T00:48:38.410Z,72.67702
2023-07-16T00:53:39.710Z,71.25494
2023-07-16T00:58:41.095Z,70.83006
2023-07-16T01:03:42.599Z,76.11954
2023-07-16T01:08:44.018Z,74.1607
2023-07-16T01:13:45.380Z,73.63009
2023-07-16T01:18:46.734Z,73.9423
2023-07-16T01:23:48.029Z,75.29149
2023-07-16T01:28:49.683Z,73.74133
2023-07-16T01:33:51.026Z,71.86348
2023-07-16T01:38:52.380Z,71.06213
2023-07-16T01:43:53.668Z,72.1834
2023-07-16T01:48:55.291Z,74.01068
2023-07-16T01:53:56.643Z,73.42045
2023-07-16T01:58:58.153Z,71.28932
2023-07-16T02:03:59.471Z,73.3404
2023-07-16T02:09:01.058Z,73.8971
2023-07-16T02:14:02.389Z,72.33622
2023-07-16T02:19:04.019Z,72.9622
2023-07-16T02:24:05.433Z,74.74648
2023-07-16T02:29:06.763Z,74.98124
2023-07-16T02:34:08.167Z,76.79342
2023-07-16T02:39:09.521Z,80.24382
2023-07-16T02:44:10.905Z,76.95426
2023-07-16T02:49:12.521Z,76.65137
2023-07-16T02:54:13.812Z,74.00298
2023-07-16T02:59:15.132Z,76.86677
2023-07-16T03:04:16.615Z,80.22355
2023-07-16T03:09:17.963Z,81.8738
2023-07-16T03:14:19.339Z,78.84188
2023-07-16T03:19:20.645Z,83.03581
2023-07-16T03:24:21.998Z,81.8556
2023-07-16T03:29:23.295Z,85.11424
2023-07-16T03:34:24.940Z,80.51939
2023-07-16T03:39:26.448Z,78.50893
2023-07-16T03:44:27.954Z,89.37991
2023-07-16T03:49:29.441Z,85.93864
2023-07-16T03:54:30.722Z,83.44225
2023-07-16T03:59:32.168Z,79.38128
2023-07-16T04:04:33.600Z,80.3362
2023-07-16T04:09:35.030Z,79.97913
2023-07-16T04:14:36.304Z,77.88581
2023-07-16T04:19:37.664Z,78.85917
2023-07-16T04:24:38.974Z,86.69949
2023-07-16T04:29:40.330Z,87.14587
2023-07-16T04:34:41.820Z,80.31914
2023-07-16T04:39:43.245Z,78.3935
2023-07-16T04:44:44.532Z,82.73447
2023-07-16T04:49:46.322Z,84.47975
2023-07-16T04:54:48.182Z,89.31677
2023-07-16T04:59:49.560Z,91.21663
2023-07-16T05:04:51.013Z,87.62523
2023-07-16T05:09:52.351Z,89.44831
2023-07-16T05:14:53.669Z,91.97136
2023-07-16T05:19:55.493Z,85.15186
2023-07-16T05:24:56.823Z,91.98307
2023-07-16T05:29:58.130Z,88.4736
2023-07-16T05:35:03.115Z,84.02562
2023-07-16T05:40:05.085Z,80.21664
2023-07-16T05:45:06.412Z,84.39248
2023-07-16T05:50:07.907Z,79.16037
2023-07-16T05:55:09.245Z,78.74491
2023-07-16T06:00:10.645Z,75.2919
2023-07-16T06:05:12.258Z,72.55244
2023-07-16T06:10:13.906Z,74.37801
2023-07-16T06:15:15.444Z,75.02885
2023-07-16T06:20:16.755Z,72.76662
2023-07-16T06:25:18.273Z,69.6488
2023-07-16T06:30:19.831Z,67.38891
2023-07-16T06:35:21.491Z,64.46749
2023-07-16T06:40:23.046Z,62.95486
2023-07-16T06:45:24.473Z,60.25919
2023-07-16T06:50:26.083Z,59.541
2023-07-16T06:55:27.819Z,59.52658
2023-07-16T07:00:29.508Z,60.13805
2023-07-16T07:05:31.308Z,59.08223
2023-07-16T07:10:32.977Z,54.53476
2023-07-16T07:15:34.660Z,56.90189
2023-07-16T07:20:36.278Z,56.44896
2023-07-16T07:25:37.691Z,54.42097
2023-07-16T07:30:39.073Z,53.39867
2023-07-16T07:35:40.702Z,52.82105
2023-07-16T07:40:42.016Z,50.92495
2023-07-16T07:45:44.097Z,49.94531
2023-07-16T07:50:45.756Z,49.52602
2023-07-16T07:55:47.042Z,47.07707
2023-07-16T08:00:48.752Z,45.66697
2023-07-16T08:05:50.267Z,44.87124
2023-07-16T08:10:51.890Z,43.9212
2023-07-16T08:15:53.665Z,44.79426
2023-07-16T08:20:55.614Z,40.36168
2023-07-16T08:25:56.969Z,39.66325
2023-07-16T08:30:58.802Z,39.04753
2023-07-16T08:36:00.677Z,38.7417
2023-07-16T08:41:02.269Z,37.80437
2023-07-16T08:46:03.949Z,36.3876
2023-07-16T08:51:05.593Z,36.42967
2023-07-16T08:56:07.285Z,36.1829
2023-07-16T09:01:08.951Z,34.53273
2023-07-16T09:06:10.606Z,33.66594
2023-07-16T09:11:11.996Z,32.5954
2023-07-16T09:16:13.671Z,32.35975
2023-07-16T09:21:15.081Z,32.28594
2023-07-16T09:26:17.053Z,32.95413
2023-07-16T09:31:19.206Z,32.73473
2023-07-16T09:36:21.234Z,32.56053
2023-07-16T09:41:23.046Z,31.57749
2023-07-16T09:46:24.704Z,32.86465
2023-07-16T09:51:26.398Z,32.3523
2023-07-16T09:56:28.156Z,33.23094
2023-07-16T10:01:29.870Z,32.2719
2023-07-16T10:06:31.677Z,31.63364
2023-07-16T10:11:33.319Z,33.09864
2023-07-16T10:16:34.863Z,31.53919
2023-07-16T10:21:36.401Z,32.0864
2023-07-16T10:26:37.769Z,31.31981
2023-07-16T10:31:39.181Z,30.67018
2023-07-16T10:36:40.542Z,31.7242
2023-07-16T10:41:41.950Z,30.60369
2023-07-16T10:46:43.387Z,30.04652
2023-07-16T10:51:44.921Z,30.31424
2023-07-16T10:56:46.272Z,30.22952
2023-07-16T11:01:47.603Z,30.02761
2023-07-16T11:06:49.422Z,29.64457
2023-07-16T11:11:50.916Z,30.42695
2023-07-16T11:16:52.224Z,29.43118
2023-07-16T11:21:53.769Z,29.30803
2023-07-16T11:26:55.283Z,30.15403
2023-07-16T11:31:57.030Z,28.9989
2023-07-16T11:36:58.712Z,29.19046
2023-07-16T11:42:00.329Z,28.69577
2023-07-16T11:47:01.896Z,28.72217
2023-07-16T11:52:03.450Z,28.47988
2023-07-16T11:57:05.143Z,28.04058
2023-07-16T12:02:06.463Z,28.66199
2023-07-16T12:07:08.037Z,28.20034
2023-07-16T12:12:09.328Z,27.49934
2023-07-16T12:17:11.207Z,27.66558
2023-07-16T12:22:13.003Z,28.16503
2023-07-16T12:27:15.043Z,27.92968
2023-07-16T12:32:16.815Z,27.23933
2023-07-16T12:37:18.464Z,27.81568
2023-07-16T12:42:20.141Z,27.38308
2023-07-16T12:47:21.821Z,27.6767
2023-07-16T12:52:23.549Z,28.39284
2023-07-16T12:57:25.317Z,28.31782
2023-07-16T13:02:27.061Z,28.03127
2023-07-16T13:07:28.753Z,27.34221
2023-07-16T13:12:30.134Z,28.44423
2023-07-16T13:17:31.513Z,27.94225
2023-07-16T13:22:33.350Z,27.48345
2023-07-16T13:27:36.375Z,27.67895
2023-07-16T13:32:37.790Z,27.64828
2023-07-16T13:37:39.713Z,28.2141
2023-07-16T13:42:41.661Z,27.0334
2023-07-16T13:47:43.644Z,27.34117
2023-07-16T13:52:45.053Z,28.08995
2023-07-16T13:57:46.731Z,27.88304
2023-07-16T14:02:48.499Z,27.73197
2023-07-16T14:07:50.021Z,28.01639
2023-07-16T14:12:51.450Z,28.18971
2023-07-16T14:17:52.994Z,28.59666
2023-07-16T14:22:54.429Z,28.49367
2023-07-16T14:27:55.984Z,27.85954
2023-07-16T14:32:57.348Z,28.63901
2023-07-16T14:37:58.948Z,28.95906
2023-07-16T14:43:00.557Z,28.97491
2023-07-16T14:48:01.937Z,28.78264
2023-07-16T14:53:03.605Z,29.3843
2023-07-16T14:58:04.957Z,30.03646
2023-07-16T15:03:06.478Z,30.25121
2023-07-16T15:08:08.293Z,30.01962
2023-07-16T15:13:09.979Z,30.15114
2023-07-16T15:18:11.797Z,30.5568
2023-07-16T15:23:13.700Z,30.44282
2023-07-16T15:28:15.256Z,30.90954
2023-07-16T15:33:16.886Z,31.04305
2023-07-16T15:38:18.487Z,31.15527
2023-07-16T15:43:20.223Z,32.08961
2023-07-16T15:48:22.128Z,32.22862
2023-07-16T15:53:23.927Z,32.55428
2023-07-16T15:58:25.659Z,33.40687
2023-07-16T16:03:27.414Z,33.40176
2023-07-16T16:08:29.242Z,34.14801
2023-07-16T16:13:31.081Z,33.92697
2023-07-16T16:23:38.204Z,34.44705
2023-07-16T16:28:40.055Z,34.17498
2023-07-16T16:33:41.881Z,33.87105
2023-07-16T16:38:43.522Z,34.22252
2023-07-16T16:43:44.844Z,34.31713
2023-07-16T16:48:46.369Z,33.8864
2023-07-16T16:53:47.776Z,34.39023
2023-07-16T16:58:49.149Z,35.74399
2023-07-16T17:03:50.463Z,35.33139
2023-07-16T17:08:51.771Z,35.23189
2023-07-16T17:13:53.188Z,36.30223
2023-07-16T17:18:54.602Z,36.31802
2023-07-16T17:23:56.320Z,36.69331
2023-07-16T17:28:57.797Z,37.09937
2023-07-16T17:33:59.138Z,37.26678
2023-07-16T17:39:00.586Z,37.62581
2023-07-16T17:44:01.934Z,37.78782
2023-07-16T17:49:03.346Z,37.76183
2023-07-16T17:54:04.829Z,38.57743
2023-07-16T17:59:06.296Z,38.48455
2023-07-16T18:04:08.076Z,39.2838
2023-07-16T18:09:09.519Z,38.79846
2023-07-16T18:14:11.179Z,38.23648
2023-07-16T18:19:12.818Z,37.98648
2023-07-16T18:24:14.986Z,38.49556
2023-07-16T18:29:16.314Z,39.41478
2023-07-16T18:34:17.966Z,40.23275
2023-07-16T18:39:19.424Z,40.69642
2023-07-16T18:44:20.813Z,40.9855
2023-07-16T18:49:22.238Z,42.0299
2023-07-16T18:54:23.533Z,41.06181
2023-07-16T18:59:24.828Z,42.10167
2023-07-16T19:04:26.237Z,44.43845
2023-07-16T19:09:27.636Z,43.75393
2023-07-16T19:14:29.212Z,43.99349
2023-07-16T19:19:30.787Z,48.4523
2023-07-16T19:24:32.574Z,47.91413
2023-07-16T19:29:34.097Z,47.95365
2023-07-16T19:34:35.827Z,49.04998
2023-07-16T19:39:37.540Z,48.67812
2023-07-16T19:44:39.189Z,51.2555
2023-07-16T19:49:40.821Z,53.65015
2023-07-16T19:54:42.549Z,53.65414
2023-07-16T19:59:44.229Z,53.1167
2023-07-16T20:04:45.638Z,52.0712
2023-07-16T20:09:47.012Z,54.91808
2023-07-16T20:14:48.308Z,53.48994
2023-07-16T20:19:49.596Z,53.95803
2023-07-16T20:24:50.950Z,57.42779
2023-07-16T20:29:52.445Z,55.24421
2023-07-16T20:34:53.794Z,56.41398
2023-07-16T20:39:55.320Z,56.32216
2023-07-16T20:44:56.692Z,54.77934
2023-07-16T20:49:58.039Z,56.51417
2023-07-16T20:55:01.588Z,57.11674
2023-07-16T21:00:03.294Z,57.49605
2023-07-16T21:05:04.700Z,57.53057
2023-07-16T21:10:06.030Z,56.25055
2023-07-16T21:15:07.449Z,55.93785
2023-07-16T21:20:08.826Z,60.53514
2023-07-16T21:25:10.198Z,59.32348
2023-07-16T21:30:11.747Z,60.41831
2023-07-16T21:35:13.380Z,61.19185
2023-07-16T21:40:15.075Z,59.57743
2023-07-16T21:45:16.475Z,62.62823
2023-07-16T21:50:17.880Z,63.48744
2023-07-16T21:55:19.368Z,60.61231
2023-07-16T22:00:20.694Z,61.46786
2023-07-16T22:05:22.179Z,60.95705
2023-07-16T22:10:23.621Z,62.11457
2023-07-16T22:15:24.994Z,62.25636
2023-07-16T22:20:26.372Z,62.00459
2023-07-16T22:25:27.685Z,63.66641
2023-07-16T22:30:29.202Z,62.49927
2023-07-16T22:35:30.543Z,61.90162
2023-07-16T22:40:32.102Z,63.15953
2023-07-16T22:45:33.537Z,62.11737
2023-07-16T22:50:34.891Z,67.48379
2023-07-16T22:55:36.563Z,63.42081
2023-07-16T23:00:37.912Z,63.41061
2023-07-16T23:05:39.287Z,67.07305
2023-07-16T23:10:40.877Z,63.12061
2023-07-16T23:15:42.227Z,64.5235
2023-07-16T23:20:43.792Z,66.51675
2023-07-16T23:25:45.626Z,64.80378
2023-07-16T23:30:47.428Z,69.23532
2023-07-16T23:35:49.058Z,63.86403
2023-07-16T23:40:50.433Z,66.6036
2023-07-16T23:45:51.825Z,66.63859
2023-07-16T23:50:53.225Z,66.97499
2023-07-16T23:55:54.603Z,67.96963
